createdAt,value
2022-10-18T00:01:20.410Z,102907.03
2022-10-18T00:05:20.292Z,102906.25
2022-10-18T00:09:19.336Z,102904.09
2022-10-18T00:13:18.956Z,102901.25
2022-10-18T00:17:20.679Z,102902.13
2022-10-18T00:21:22.291Z,102892.47
2022-10-18T00:25:22.013Z,102899.88
2022-10-18T00:29:21.827Z,102885.78
2022-10-18T00:33:23.705Z,102865.72
2022-10-18T00:37:23.378Z,102883.41
2022-10-18T00:41:23.431Z,102882.72
2022-10-18T00:45:25.034Z,102887.00
2022-10-18T00:49:30.671Z,102877.53
2022-10-18T00:53:30.341Z,102876.59
2022-10-18T00:57:29.867Z,102879.19
2022-10-18T01:01:29.628Z,102870.31
2022-10-18T01:05:31.407Z,102874.94
2022-10-18T01:09:38.772Z,102876.22
2022-10-18T01:13:49.321Z,102867.66
2022-10-18T01:17:58.001Z,102863.09
2022-10-18T01:22:06.919Z,102859.38
2022-10-18T01:26:26.347Z,102855.72
2022-10-18T01:30:49.630Z,102834.34
2022-10-18T01:34:53.407Z,102859.81
2022-10-18T01:38:57.083Z,102821.81
2022-10-18T01:42:57.146Z,102853.50
2022-10-18T01:46:59.998Z,102845.41
2022-10-18T01:50:59.713Z,102839.59
2022-10-18T01:54:59.672Z,102847.63
2022-10-18T01:59:10.654Z,102832.91
2022-10-18T02:03:18.543Z,102830.50
2022-10-18T02:07:30.060Z,102827.78
2022-10-18T02:11:32.315Z,102830.44
2022-10-18T02:15:36.573Z,102834.91
2022-10-18T02:19:43.561Z,102824.81
2022-10-18T02:23:45.326Z,102778.69
2022-10-18T02:27:44.582Z,102830.88
2022-10-18T02:31:47.145Z,102823.22
2022-10-18T02:35:54.047Z,102833.66
2022-10-18T02:39:53.949Z,102818.28
2022-10-18T02:43:53.803Z,102835.19
2022-10-18T02:47:53.480Z,102826.41
2022-10-18T02:51:54.875Z,102829.00
2022-10-18T02:55:54.561Z,102833.00
2022-10-18T02:59:53.849Z,102835.44
2022-10-18T03:03:53.436Z,102831.44
2022-10-18T03:07:54.887Z,102828.66
2022-10-18T03:11:54.404Z,102837.06
2022-10-18T03:15:53.962Z,102835.19
2022-10-18T03:20:02.241Z,102836.09
2022-10-18T03:24:04.167Z,102837.38
2022-10-18T03:28:03.720Z,102835.13
2022-10-18T03:32:03.281Z,102835.75
2022-10-18T03:36:02.655Z,102842.44
2022-10-18T03:40:04.382Z,102841.72
2022-10-18T03:44:03.939Z,102775.59
2022-10-18T03:48:03.649Z,102829.81
2022-10-18T03:52:03.281Z,102828.59
2022-10-18T03:56:05.516Z,102834.69
2022-10-18T04:00:06.676Z,102826.31
2022-10-18T04:04:11.058Z,102814.97
2022-10-18T04:08:10.972Z,102828.91
2022-10-18T04:12:13.042Z,102823.78
2022-10-18T04:16:14.918Z,102802.69
2022-10-18T04:20:14.786Z,102815.97
2022-10-18T04:24:14.835Z,102819.72
2022-10-18T04:28:18.873Z,102774.25
2022-10-18T04:32:20.976Z,102799.09
2022-10-18T04:36:22.583Z,102787.44
2022-10-18T04:40:26.292Z,102775.06
2022-10-18T04:44:29.327Z,102787.13
2022-10-18T04:48:29.531Z,102793.53
2022-10-18T04:52:33.438Z,102816.50
2022-10-18T04:56:37.965Z,102817.63
2022-10-18T05:00:40.586Z,102814.84
2022-10-18T05:04:42.696Z,102824.28
2022-10-18T05:08:44.128Z,102826.00
2022-10-18T05:12:44.864Z,102821.72
2022-10-18T05:16:47.305Z,102798.34
2022-10-18T05:20:47.253Z,102810.16
2022-10-18T05:24:50.381Z,102790.38
2022-10-18T05:28:51.754Z,102820.97
2022-10-18T05:32:59.640Z,102759.44
2022-10-18T05:37:28.241Z,102818.94
2022-10-18T05:41:33.067Z,102817.59
2022-10-18T05:45:36.825Z,102802.44
2022-10-18T05:50:05.136Z,102804.25
2022-10-18T05:54:22.096Z,102816.25
2022-10-18T05:58:27.233Z,102829.81
2022-10-18T06:02:30.807Z,102804.81
2022-10-18T06:06:45.113Z,102842.31
2022-10-18T06:10:52.118Z,102811.13
2022-10-18T06:15:05.473Z,102834.31
2022-10-18T06:19:06.303Z,102820.94
2022-10-18T06:23:09.701Z,102821.59
2022-10-18T06:27:20.192Z,102835.13
2022-10-18T06:31:24.106Z,102833.84
2022-10-18T06:35:38.082Z,102833.59
2022-10-18T06:39:53.993Z,102825.91
2022-10-18T06:44:44.667Z,102822.81
2022-10-18T06:50:12.074Z,102828.84
2022-10-18T07:42:48.505Z,102819.81
2022-10-18T07:59:46.946Z,102809.13
2022-10-18T08:00:41.736Z,102813.84
2022-10-18T08:10:45.757Z,102805.22
2022-10-18T08:22:10.659Z,102795.09
2022-10-18T08:27:18.307Z,102782.50
2022-10-18T08:34:22.426Z,102773.44
2022-10-18T08:48:50.345Z,102758.31
2022-10-18T08:53:15.766Z,102710.94
2022-10-18T08:57:18.066Z,102731.72
2022-10-18T09:01:38.348Z,102749.41
2022-10-18T09:06:04.226Z,102706.72
2022-10-18T09:10:20.723Z,102738.63
2022-10-18T09:15:07.938Z,102659.25
2022-10-18T09:19:27.233Z,102720.00
2022-10-18T09:23:40.265Z,102703.22
2022-10-18T09:27:50.926Z,102708.50
2022-10-18T09:31:58.127Z,102712.97
2022-10-18T09:36:02.755Z,102704.19
2022-10-18T09:40:09.024Z,102693.00
2022-10-18T09:44:17.852Z,102663.81
2022-10-18T09:48:24.179Z,102683.38
2022-10-18T09:53:17.467Z,102679.09
2022-10-18T09:57:54.809Z,102665.94
2022-10-18T10:02:01.894Z,102628.91
2022-10-18T10:06:40.318Z,102636.91
2022-10-18T10:11:54.186Z,102623.78
2022-10-18T10:16:18.185Z,102632.66
2022-10-18T10:20:38.606Z,102617.63
2022-10-18T10:25:03.437Z,102564.56
2022-10-18T10:29:13.251Z,102591.13
2022-10-18T10:45:03.590Z,102571.66
2022-10-18T10:49:39.574Z,102569.00
2022-10-18T10:54:12.922Z,102558.38
2022-10-18T10:58:31.430Z,102556.63
2022-10-18T11:03:10.829Z,102501.78
2022-10-18T11:07:54.892Z,102529.13
2022-10-18T11:12:06.212Z,102520.28
2022-10-18T11:16:12.819Z,102481.31
2022-10-18T11:20:33.978Z,102446.81
2022-10-18T11:24:39.352Z,102460.84
2022-10-18T11:29:26.820Z,102458.09
2022-10-18T11:34:15.798Z,102477.44
2022-10-18T11:38:40.671Z,102475.66
2022-10-18T11:42:54.677Z,102460.56
2022-10-18T11:47:09.688Z,102421.72
2022-10-18T11:51:50.300Z,102432.22
2022-10-18T11:56:19.423Z,102444.69
2022-10-18T12:00:56.070Z,102411.19
2022-10-18T12:09:35.255Z,102417.25
2022-10-18T12:13:48.994Z,102399.63
2022-10-18T12:17:57.285Z,102390.00
2022-10-18T12:21:59.842Z,102412.97
2022-10-18T12:26:05.399Z,102394.38
2022-10-18T12:30:26.007Z,102388.06
2022-10-18T12:39:43.335Z,102394.81
2022-10-18T12:43:57.648Z,102387.31
2022-10-18T12:48:04.745Z,102370.28
2022-10-18T12:52:11.051Z,102346.41
2022-10-18T12:56:42.971Z,102344.44
2022-10-18T13:00:55.220Z,102345.25
2022-10-18T13:04:56.749Z,102345.50
2022-10-18T13:09:23.363Z,102332.34
2022-10-18T13:13:55.945Z,102339.41
2022-10-18T13:18:01.756Z,102326.84
2022-10-18T13:22:21.243Z,102324.84
2022-10-18T13:26:35.988Z,102319.69
2022-10-18T13:30:51.270Z,102304.94
2022-10-18T13:34:54.673Z,102283.94
2022-10-18T13:39:10.204Z,102307.06
2022-10-18T13:44:15.530Z,102298.47
2022-10-18T13:48:51.928Z,102302.09
2022-10-18T13:53:24.769Z,102280.72
2022-10-18T13:57:43.727Z,102264.13
2022-10-18T14:02:06.523Z,102271.94
2022-10-18T14:06:11.633Z,102202.00
2022-10-18T14:10:43.281Z,102193.06
2022-10-18T14:14:57.875Z,102249.31
2022-10-18T14:19:10.334Z,102238.56
2022-10-18T14:23:16.465Z,102241.31
2022-10-18T14:27:20.014Z,102208.75
2022-10-18T14:31:22.122Z,102225.59
2022-10-18T14:35:33.910Z,102193.06
2022-10-18T14:39:33.713Z,102189.69
2022-10-18T14:43:33.337Z,102212.78
2022-10-18T14:47:36.003Z,102221.59
2022-10-18T14:51:41.008Z,102204.91
2022-10-18T14:55:42.695Z,102207.59
2022-10-18T14:59:48.869Z,102188.97
2022-10-18T15:03:49.337Z,102193.28
2022-10-18T15:07:53.186Z,102187.06
2022-10-18T15:11:54.514Z,102179.09
2022-10-18T15:15:55.114Z,102179.09
2022-10-18T15:20:03.288Z,102165.94
2022-10-18T15:24:30.454Z,102174.75
2022-10-18T15:28:32.181Z,102173.09
2022-10-18T15:32:33.559Z,102143.41
2022-10-18T15:36:34.997Z,102170.13
2022-10-18T15:40:44.511Z,102172.88
2022-10-18T15:44:50.667Z,102171.19
2022-10-18T15:48:50.304Z,102169.50
2022-10-18T15:52:49.931Z,102166.03
2022-10-18T15:56:51.704Z,102163.50
2022-10-18T16:00:52.634Z,102162.72
2022-10-18T16:04:52.276Z,102164.59
2022-10-18T16:08:53.392Z,102173.38
2022-10-18T16:16:56.297Z,102172.44
2022-10-18T16:20:56.225Z,102161.72
2022-10-18T16:24:56.176Z,102166.00
2022-10-18T16:28:58.989Z,102144.72
2022-10-18T16:32:58.630Z,102174.66
2022-10-18T16:36:57.730Z,102168.38
2022-10-18T16:40:57.427Z,102170.03
2022-10-18T16:44:59.121Z,102167.06
2022-10-18T16:48:59.546Z,102164.97
2022-10-18T16:52:59.001Z,102158.78
2022-10-18T16:56:58.532Z,102151.75
2022-10-18T17:01:02.909Z,102167.84
2022-10-18T17:05:05.547Z,102152.34
2022-10-18T17:09:05.521Z,102150.53
2022-10-18T17:13:07.139Z,102160.00
2022-10-18T17:17:11.926Z,102159.00
2022-10-18T17:21:10.932Z,102150.13
2022-10-18T17:25:10.860Z,102152.69
2022-10-18T17:29:09.751Z,102148.25
2022-10-18T17:33:11.982Z,102146.41
2022-10-18T17:37:11.550Z,102144.19
2022-10-18T17:41:12.690Z,102145.69
2022-10-18T17:45:13.223Z,102143.91
2022-10-18T17:49:16.391Z,102148.31
2022-10-18T17:53:18.008Z,102136.91
2022-10-18T17:57:17.917Z,102137.88
2022-10-18T18:01:19.762Z,102144.94
2022-10-18T18:05:21.521Z,102131.13
2022-10-18T18:09:21.512Z,102124.00
2022-10-18T18:13:21.128Z,102101.59
2022-10-18T18:17:28.730Z,102097.66
2022-10-18T18:21:36.322Z,102101.47
2022-10-18T18:25:35.913Z,102068.28
2022-10-18T18:29:34.894Z,102091.81
2022-10-18T18:33:34.363Z,102069.06
2022-10-18T18:37:35.595Z,102094.56
2022-10-18T18:41:36.411Z,102091.94
2022-10-18T18:45:35.878Z,102090.94
2022-10-18T18:49:35.051Z,102078.97
2022-10-18T18:53:38.035Z,102068.50
2022-10-18T18:57:37.576Z,102065.81
2022-10-18T19:01:38.329Z,102072.06
2022-10-18T19:05:38.616Z,102068.50
2022-10-18T19:09:41.956Z,102066.03
2022-10-18T19:13:41.690Z,102060.59
2022-10-18T19:17:41.272Z,102056.41
2022-10-18T19:21:42.620Z,102025.03
2022-10-18T19:25:44.376Z,102029.19
2022-10-18T19:29:45.678Z,102045.00
2022-10-18T19:33:48.330Z,102030.22
2022-10-18T19:37:58.286Z,102013.38
2022-10-18T19:42:02.931Z,102033.47
2022-10-18T19:46:04.631Z,102026.97
2022-10-18T19:50:04.237Z,102011.75
2022-10-18T19:54:04.010Z,102026.03
2022-10-18T19:58:05.766Z,102023.69
2022-10-18T20:02:05.794Z,102023.06
2022-10-18T20:06:05.829Z,102015.34
2022-10-18T20:10:05.774Z,102010.84
2022-10-18T20:14:09.241Z,102014.78
2022-10-18T20:18:09.151Z,102001.69
2022-10-18T20:22:08.715Z,101995.28
2022-10-18T20:26:08.745Z,102006.25
2022-10-18T20:30:11.803Z,101997.47
2022-10-18T20:34:14.068Z,101996.78
2022-10-18T20:38:13.788Z,101990.91
2022-10-18T20:42:13.313Z,101989.56
2022-10-18T20:46:14.823Z,101978.91
2022-10-18T20:50:14.337Z,101969.50
2022-10-18T20:54:14.226Z,101972.25
2022-10-18T20:58:13.922Z,101969.97
2022-10-18T21:02:15.840Z,101960.84
2022-10-18T21:06:17.251Z,101955.41
2022-10-18T21:10:16.757Z,101956.25
2022-10-18T21:14:17.443Z,101940.47
2022-10-18T21:18:18.774Z,101940.34
2022-10-18T21:22:18.230Z,101938.47
2022-10-18T21:26:18.937Z,101911.84
2022-10-18T21:30:18.541Z,101921.69
2022-10-18T21:34:20.214Z,101906.34
2022-10-18T21:38:19.785Z,101905.66
2022-10-18T21:42:19.044Z,101899.09
2022-10-18T21:46:20.422Z,101901.47
2022-10-18T21:50:22.058Z,101891.88
2022-10-18T21:54:21.704Z,101864.97
2022-10-18T21:58:21.710Z,101885.34
2022-10-18T22:02:21.529Z,101874.06
2022-10-18T22:06:24.739Z,101865.94
2022-10-18T22:10:24.507Z,101862.03
2022-10-18T22:14:24.269Z,101870.06
2022-10-18T22:18:24.631Z,101859.44
2022-10-18T22:22:26.609Z,101843.25
2022-10-18T22:26:28.065Z,101838.25
2022-10-18T22:30:27.821Z,101828.91
2022-10-18T22:34:29.275Z,101827.78
2022-10-18T22:38:34.933Z,101795.22
2022-10-18T22:46:38.885Z,101809.47
2022-10-18T22:50:38.138Z,101810.84
2022-10-18T22:54:39.740Z,101811.47
2022-10-18T22:58:40.600Z,101802.88
2022-10-18T23:02:39.659Z,101802.78
2022-10-18T23:06:38.858Z,101803.66
2022-10-18T23:10:41.553Z,101796.19
2022-10-18T23:14:40.555Z,101794.22
2022-10-18T23:22:44.327Z,101795.47
2022-10-18T23:26:45.705Z,101789.28
2022-10-18T23:30:45.305Z,101779.91
2022-10-18T23:34:44.489Z,101781.28
2022-10-18T23:38:44.034Z,101778.16
2022-10-18T23:42:45.713Z,101775.84
2022-10-18T23:46:45.501Z,101755.56
2022-10-18T23:50:45.367Z,101763.22
2022-10-18T23:58:51.458Z,101758.78
